Tellejaur, Sweden

4:19 PM CET on February 11, 2016 (GMT +0100)
Vidsel Air Base | | Change Station
CLOSE
Current Station
Airport
Location: Vidsel,
Elevation: 597 ft
Nearby Weather Stations

Elev 597 ft 65.88 °N, 20.14 °E | Updated 29 minutes ago

Light Snow
Light Snow
27 °F
Feels Like 18 °F
N
8
Wind Variable Wind from NW

Today
High -- | Low -- °F
--% Chance of Precip.
Yesterday
High -- | Low -- °F
Precip. -- in
Pressure 29.39 in
Visibility 3.7 miles
Clouds Mostly Cloudy 2900 ft
Windchill 18 °F
Dew Point 23 °F
Humidity 86%
Rainfall 0.00 in
Snow Depth Not available.
8:04 AM 3:47 PM
Waxing Crescent, 12% visible
METAR ESPE 111450Z 32007KT 6000 -SN BKN029 M03/M05 Q0995
Pressure 29.39 in
Visibility 3.7 miles
Clouds Mostly Cloudy 2900 ft
Windchill 18 °F
Dew Point 23 °F
Humidity 86%
Rainfall 0.00 in
Snow Depth Not available.
8:04 AM 3:47 PM
Waxing Crescent, 12% visible
METAR ESPE 111450Z 32007KT 6000 -SN BKN029 M03/M05 Q0995

10-Day Weather Forecast

Almanac

Astronomy

Feb. 11, 2016 Rise Set
Actual Time
Civil Twilight
Nautical Twilight
Astronomical Twilight
Moon
Length of Visible Light
Length of Day
Tomorrow will be .
, % of the Moon is Illuminated

Today's Extremes

Country Highs Country Lows

Community

WunderPhotos

Upload Photos

1,892,060 photos uploaded!

WunderBlog® & News

Nearby

Air Quality

  Air Quality AQ Index Pollutant
Not available.

Snow Depth

Station Depth Elevation

Earthquake Activity

City Distance Mag. Time & Date
Minimum magnitude displayed is 2.5.

Coastal Water Temperatures

Place Temperature

Stations

Nearby Weather Stations

Station Location Temp. Windchill Dew Point Humidity Wind Precip. Elev Updated Type